Time;durP1;ratioP1;P1;durP2;ratioP2;P2;SDS_P1;SDS_P2;PMS_P1;PMS_P2;Temp;Humidity;BMP_temperature;BMP_pressure;BME280_temperature;BME280_humidity;BME280_pressure;Samples;Min_cycle;Max_cycle;Signal;HPM_P1;HPM_P2
2022/01/06 00:00:57;;;;;;;8.90;3.63;;;;;;;19.15;56.61;100235.94;5061778;28;20473;-64
2022/01/06 00:03:23;;;;;;;9.33;3.07;;;;;;;19.11;56.96;100228.53;5048564;28;20414;-64
2022/01/06 00:05:48;;;;;;;12.10;4.10;;;;;;;19.10;56.68;100239.16;5049070;28;20453;-64
2022/01/06 00:08:14;;;;;;;9.10;3.53;;;;;;;19.08;57.01;100241.56;5048340;28;20176;-64
2022/01/06 00:10:39;;;;;;;6.23;3.27;;;;;;;19.09;56.99;100246.09;5048174;28;20245;-64
2022/01/06 00:13:13;;;;;;;11.00;3.60;;;;;;;19.08;56.92;100246.47;5049127;28;20175;-64
2022/01/06 00:15:55;;;;;;;8.70;3.07;;;;;;;19.08;56.97;100241.56;5048301;28;20156;-64
2022/01/06 00:23:05;;;;;;;10.67;3.30;;;;;;;19.10;56.42;100242.00;5059839;28;20472;-64
2022/01/06 00:24:05;;;;;;;8.73;2.77;;;;;;;19.07;56.92;100242.75;5052895;28;20466;-64
2022/01/06 00:26:31;;;;;;;8.57;3.80;;;;;;;19.09;57.10;100240.34;5068708;28;20923;-64
2022/01/06 00:28:56;;;;;;;7.60;3.00;;;;;;;19.08;56.82;100252.19;5067984;28;20175;-64
2022/01/06 00:31:21;;;;;;;9.40;3.30;;;;;;;19.06;56.74;100238.25;5071127;28;20183;-64
2022/01/06 00:33:47;;;;;;;7.07;3.07;;;;;;;19.06;56.94;100246.84;5069933;28;20202;-64
2022/01/06 00:36:12;;;;;;;6.10;2.97;;;;;;;19.05;57.33;100242.34;5068562;28;20241;-64
2022/01/06 00:38:38;;;;;;;10.07;3.60;;;;;;;19.06;56.81;100246.03;5067430;28;20201;-64
2022/01/06 00:41:03;;;;;;;8.77;3.57;;;;;;;19.05;56.95;100256.66;5050689;28;20184;-64
2022/01/06 00:43:29;;;;;;;10.93;2.87;;;;;;;19.05;57.12;100258.66;5048428;28;20184;-64
2022/01/06 00:45:54;;;;;;;10.33;3.90;;;;;;;19.04;57.06;100245.56;5047857;28;20642;-64
2022/01/06 00:48:20;;;;;;;6.47;3.00;;;;;;;19.04;56.94;100252.13;5048310;28;20184;-64
2022/01/06 00:50:45;;;;;;;8.53;3.37;;;;;;;19.05;56.96;100258.66;5030014;28;20225;-64
2022/01/06 00:53:10;;;;;;;9.70;3.87;;;;;;;19.03;57.40;100256.22;5048439;28;20203;-64
2022/01/06 00:55:37;;;;;;;6.50;3.00;;;;;;;19.02;56.98;100253.72;5030794;28;20242;-64
2022/01/06 00:58:03;;;;;;;7.30;3.40;;;;;;;19.06;56.73;100258.28;5051869;28;20655;-64
2022/01/06 01:00:31;;;;;;;6.43;3.03;;;;;;;19.02;56.99;100254.53;5052427;28;20523;-64
2022/01/06 01:02:57;;;;;;;8.87;3.20;;;;;;;19.05;56.69;100261.53;5071539;28;20198;-64
2022/01/06 01:05:22;;;;;;;8.70;3.03;;;;;;;19.04;56.71;100257.03;5072296;28;20508;-64
2022/01/06 01:07:48;;;;;;;8.80;3.07;;;;;;;19.04;56.91;100257.88;5071841;28;20490;-64
2022/01/06 01:10:13;;;;;;;5.50;2.83;;;;;;;19.02;57.11;100259.47;5071351;28;20190;-65
2022/01/06 01:12:42;;;;;;;6.47;3.07;;;;;;;19.03;56.77;100261.94;5072087;28;20194;-65
2022/01/06 01:15:09;;;;;;;8.43;3.50;;;;;;;19.02;56.76;100265.97;5071433;28;20214;-65
2022/01/06 01:17:34;;;;;;;8.63;3.30;;;;;;;18.98;56.97;100270.00;5071534;28;20444;-65
2022/01/06 01:20:01;;;;;;;10.80;3.27;;;;;;;18.96;57.15;100273.25;5071466;28;20413;-65
2022/01/06 01:22:26;;;;;;;7.50;3.30;;;;;;;19.00;57.21;100274.13;5053163;28;20178;-65
2022/01/06 01:24:51;;;;;;;10.63;3.00;;;;;;;18.98;57.01;100276.56;5071730;28;20447;-64
2022/01/06 01:27:21;;;;;;;9.30;3.20;;;;;;;18.96;57.16;100278.16;5071005;28;20653;-64
2022/01/06 01:30:03;;;;;;;9.60;3.30;;;;;;;18.98;57.15;100276.56;5073070;28;20177;-64
2022/01/06 01:32:38;;;;;;;11.37;3.20;;;;;;;18.96;57.17;100284.69;5063849;28;20440;-64
2022/01/06 01:35:06;;;;;;;9.87;3.27;;;;;;;18.96;56.83;100283.88;5053612;28;20464;-64
2022/01/06 01:37:31;;;;;;;7.40;3.33;;;;;;;18.96;57.32;100287.56;5059955;28;20417;-64
2022/01/06 01:39:57;;;;;;;7.70;2.90;;;;;;;18.94;57.07;100287.13;5051734;28;20445;-64
2022/01/06 01:42:23;;;;;;;9.60;3.30;;;;;;;18.94;57.19;100284.28;5051126;28;20168;-64
2022/01/06 01:44:50;;;;;;;10.70;3.47;;;;;;;18.93;57.04;100279.75;5051558;28;20203;-64
2022/01/06 01:47:16;;;;;;;7.50;3.50;;;;;;;18.96;57.06;100283.88;5068600;28;20175;-64
2022/01/06 01:49:51;;;;;;;5.30;2.87;;;;;;;18.94;56.84;100281.41;5071491;28;20493;-64
2022/01/06 01:52:17;;;;;;;5.17;2.63;;;;;;;18.94;56.86;100292.84;5055096;28;20908;-64
2022/01/06 01:54:42;;;;;;;5.83;2.67;;;;;;;18.96;57.11;100295.34;5071791;28;20449;-64
2022/01/06 01:57:08;;;;;;;7.23;3.00;;;;;;;18.95;57.17;100296.53;5053155;28;20498;-64
2022/01/06 01:59:33;;;;;;;5.73;2.80;;;;;;;18.94;56.89;100304.28;5053823;28;20268;-64
2022/01/06 02:01:59;;;;;;;6.27;3.20;;;;;;;18.92;56.89;100311.59;5071423;28;20183;-64
2022/01/06 02:04:24;;;;;;;6.47;2.77;;;;;;;18.92;56.92;100306.69;5071642;28;20167;-65
2022/01/06 02:06:50;;;;;;;6.13;2.70;;;;;;;18.92;57.14;100314.47;5070773;28;20696;-65
2022/01/06 02:09:17;;;;;;;7.27;2.47;;;;;;;18.92;57.03;100306.69;5070115;28;20178;-65
2022/01/06 02:11:42;;;;;;;8.13;3.20;;;;;;;18.93;56.95;100314.09;5070092;28;20195;-65
2022/01/06 02:14:08;;;;;;;8.40;2.80;;;;;;;18.97;56.64;100306.38;5071221;28;20468;-65
2022/01/06 02:16:33;;;;;;;5.90;2.87;;;;;;;18.91;56.94;100307.91;5071043;28;20171;-64
2022/01/06 02:18:59;;;;;;;8.33;3.03;;;;;;;18.91;56.84;100305.06;5052616;28;20233;-64
2022/01/06 02:21:25;;;;;;;8.93;3.10;;;;;;;18.92;56.86;100309.56;5071341;28;20571;-64
2022/01/06 02:23:50;;;;;;;7.80;2.80;;;;;;;18.90;56.72;100314.84;5054049;28;20468;-64
2022/01/06 02:26:16;;;;;;;6.20;3.10;;;;;;;18.90;56.69;100306.25;5073281;28;20226;-65
2022/01/06 02:28:41;;;;;;;5.10;2.77;;;;;;;18.90;56.87;100314.84;5070687;28;20179;-65
2022/01/06 02:31:07;;;;;;;7.67;3.50;;;;;;;18.90;57.09;100317.72;5070815;28;20199;-65
2022/01/06 02:33:32;;;;;;;6.27;2.90;;;;;;;18.91;56.94;100318.53;5052760;28;20234;-65
2022/01/06 02:35:58;;;;;;;8.43;2.90;;;;;;;18.85;57.04;100312.31;5073802;28;20171;-65
2022/01/06 02:38:23;;;;;;;8.57;2.57;;;;;;;18.86;57.35;100313.94;5052479;28;20167;-65
2022/01/06 02:40:49;;;;;;;5.40;2.30;;;;;;;18.86;56.90;100313.94;5036588;28;20194;-65
2022/01/06 02:43:17;;;;;;;6.43;2.80;;;;;;;18.87;57.02;100317.66;5070098;28;20207;-65
2022/01/06 02:45:43;;;;;;;7.30;3.00;;;;;;;18.87;57.09;100320.50;5070300;28;20175;-65
2022/01/06 02:48:08;;;;;;;7.67;2.90;;;;;;;18.85;57.07;100318.03;5069851;28;20790;-65
2022/01/06 02:50:44;;;;;;;5.00;2.50;;;;;;;18.85;56.77;100312.31;5036348;28;20182;-65
2022/01/06 02:53:10;;;;;;;5.43;2.20;;;;;;;18.87;56.97;100315.59;5070427;28;20206;-65
2022/01/06 02:55:37;;;;;;;5.67;2.87;;;;;;;18.86;57.08;100316.00;5051177;28;20785;-64
2022/01/06 02:58:03;;;;;;;5.70;2.40;;;;;;;18.85;57.04;100323.75;5070874;28;20171;-64
2022/01/06 03:00:28;;;;;;;7.97;2.70;;;;;;;18.83;57.38;100329.03;5070318;28;20516;-65
2022/01/06 03:02:54;;;;;;;6.30;2.67;;;;;;;18.83;57.03;100329.03;5069695;28;20178;-64
2022/01/06 03:05:19;;;;;;;7.87;2.63;;;;;;;18.82;57.08;100335.94;5070521;28;20171;-64
2022/01/06 03:07:45;;;;;;;6.20;2.50;;;;;;;18.81;57.02;100337.16;5069511;28;20199;-64
2022/01/06 03:10:13;;;;;;;9.20;3.20;;;;;;;18.84;56.79;100339.25;5069755;28;20550;-64
2022/01/06 03:12:39;;;;;;;5.87;2.63;;;;;;;18.83;56.99;100339.66;5070300;28;20171;-64
2022/01/06 03:15:23;;;;;;;5.40;2.30;;;;;;;18.83;56.75;100337.63;5052237;28;20590;-64
2022/01/06 03:17:50;;;;;;;13.77;3.80;;;;;;;18.81;56.82;100351.47;5068841;28;20174;-64
2022/01/06 03:20:16;;;;;;;8.20;2.77;;;;;;;18.80;57.09;100346.94;5069393;28;20413;-64
2022/01/06 03:22:41;;;;;;;5.80;2.93;;;;;;;18.84;56.72;100355.59;5069368;28;20406;-64
2022/01/06 03:25:08;;;;;;;5.47;2.50;;;;;;;18.85;56.81;100357.25;5070061;28;20179;-64
2022/01/06 03:27:33;;;;;;;4.90;2.37;;;;;;;18.82;57.00;100363.75;5068195;28;20211;-64
2022/01/06 03:29:59;;;;;;;7.23;3.03;;;;;;;18.83;56.72;100366.22;5032052;28;20473;-64
2022/01/06 03:32:24;;;;;;;6.23;2.87;;;;;;;18.81;56.81;100364.97;5066288;28;20569;-65
2022/01/06 03:34:50;;;;;;;4.67;1.90;;;;;;;18.76;57.08;100371.78;5070055;28;20646;-64
2022/01/06 03:37:16;;;;;;;5.50;2.33;;;;;;;18.76;57.26;100379.56;5069446;28;20179;-64
2022/01/06 03:39:42;;;;;;;4.90;2.43;;;;;;;18.77;56.94;100370.59;5051616;28;20171;-64
2022/01/06 03:42:08;;;;;;;5.63;2.57;;;;;;;18.78;56.94;100375.13;5071458;28;20229;-64
2022/01/06 03:44:34;;;;;;;5.67;2.77;;;;;;;18.79;56.92;100387.38;5086635;28;20937;-64
2022/01/06 03:46:59;;;;;;;6.10;2.67;;;;;;;18.80;56.84;100384.13;5089850;28;20408;-64
2022/01/06 03:49:24;;;;;;;6.00;2.90;;;;;;;18.77;56.94;100384.06;5090171;28;20593;-64
2022/01/06 03:51:50;;;;;;;7.07;2.40;;;;;;;18.77;56.73;100387.75;5089516;28;20178;-64
2022/01/06 03:54:15;;;;;;;7.27;2.50;;;;;;;18.79;57.07;100393.94;5089784;28;20201;-64
2022/01/06 03:56:41;;;;;;;5.63;2.53;;;;;;;18.76;56.77;100380.38;5071834;28;20205;-64
2022/01/06 03:59:06;;;;;;;7.60;3.03;;;;;;;18.77;57.15;100369.78;5071179;28;20313;-65
2022/01/06 04:01:32;;;;;;;5.30;2.60;;;;;;;18.75;57.10;100384.44;5070763;28;20253;-65
2022/01/06 04:03:58;;;;;;;5.17;2.40;;;;;;;18.76;57.25;100394.69;5048993;28;20244;-65
2022/01/06 04:06:23;;;;;;;5.80;2.40;;;;;;;18.76;56.98;100397.53;5049822;28;20651;-64
2022/01/06 04:08:49;;;;;;;7.70;2.53;;;;;;;18.73;57.10;100389.75;5049007;28;20206;-64
2022/01/06 04:11:14;;;;;;;4.27;2.40;;;;;;;18.75;56.81;100395.06;5049401;28;20191;-64
2022/01/06 04:13:40;;;;;;;8.50;2.40;;;;;;;18.74;56.80;100399.13;5030877;28;20210;-65
2022/01/06 04:16:10;;;;;;;5.80;2.43;;;;;;;18.74;56.77;100397.09;5049567;28;20233;-64
2022/01/06 04:18:36;;;;;;;8.50;2.33;;;;;;;18.74;56.95;100399.13;5044985;28;20167;-64
2022/01/06 04:21:01;;;;;;;3.47;1.90;;;;;;;18.75;56.79;100407.34;5069477;28;20516;-65
2022/01/06 04:23:27;;;;;;;6.70;3.13;;;;;;;18.77;56.74;100407.75;5069227;28;20603;-65
2022/01/06 04:25:52;;;;;;;5.77;2.63;;;;;;;18.76;56.78;100411.84;5069019;28;20256;-64
2022/01/06 04:28:17;;;;;;;4.43;2.27;;;;;;;18.72;56.96;100416.66;5068112;28;20171;-64
2022/01/06 04:30:43;;;;;;;4.97;2.10;;;;;;;18.73;57.13;100414.63;5066500;28;20187;-64
2022/01/06 04:33:08;;;;;;;4.07;2.00;;;;;;;18.75;56.65;100410.19;5062755;28;20654;-64
2022/01/06 04:35:34;;;;;;;3.53;2.00;;;;;;;18.71;56.80;100406.44;5070871;28;20175;-64
2022/01/06 04:37:59;;;;;;;4.30;2.00;;;;;;;18.73;56.65;100401.19;5072697;28;20526;-64
2022/01/06 04:40:25;;;;;;;6.10;2.67;;;;;;;18.73;56.71;100415.47;5055365;28;20220;-64
2022/01/06 04:42:50;;;;;;;3.67;2.17;;;;;;;18.76;56.50;100405.31;5072479;28;20195;-64
2022/01/06 04:45:16;;;;;;;5.30;2.50;;;;;;;18.76;56.96;100413.91;5072994;28;20173;-64
2022/01/06 04:47:41;;;;;;;6.90;2.33;;;;;;;18.75;56.88;100415.06;5072853;28;20178;-64
2022/01/06 04:50:07;;;;;;;6.03;2.30;;;;;;;18.74;56.70;100419.97;5055469;28;20592;-64
2022/01/06 04:52:32;;;;;;;4.73;2.07;;;;;;;18.74;56.73;100430.59;5072069;28;20654;-64
2022/01/06 04:54:58;;;;;;;5.60;2.47;;;;;;;18.74;56.54;100424.88;5070234;28;20203;-64
2022/01/06 04:57:23;;;;;;;4.47;2.67;;;;;;;18.75;56.90;100427.34;5072184;28;20178;-64
2022/01/06 04:59:48;;;;;;;5.80;2.50;;;;;;;18.73;57.03;100431.78;5054490;28;20241;-64
2022/01/06 05:02:14;;;;;;;4.40;2.20;;;;;;;18.70;57.08;100436.25;5057175;28;20198;-64
2022/01/06 05:04:39;;;;;;;8.20;2.70;;;;;;;18.73;56.60;100431.78;5054856;28;20623;-65
2022/01/06 05:07:05;;;;;;;4.00;2.03;;;;;;;18.73;56.79;100438.34;5071955;28;20203;-65
2022/01/06 05:09:30;;;;;;;4.47;2.00;;;;;;;18.74;56.75;100436.31;5072585;28;20237;-65
2022/01/06 05:11:56;;;;;;;5.07;2.30;;;;;;;18.74;56.91;100440.00;5071862;28;20548;-65
2022/01/06 05:14:21;;;;;;;5.40;2.43;;;;;;;18.77;56.66;100444.16;5054724;28;20207;-65
2022/01/06 05:16:47;;;;;;;6.87;2.17;;;;;;;18.76;56.64;100440.44;5072308;28;20171;-65
2022/01/06 05:19:12;;;;;;;4.93;1.97;;;;;;;18.71;56.79;100446.47;5090399;28;20204;-65
2022/01/06 05:21:38;;;;;;;4.30;2.33;;;;;;;18.73;56.80;100435.50;5092615;28;20224;-64
2022/01/06 05:24:11;;;;;;;3.20;1.83;;;;;;;18.76;56.42;100451.88;5093470;28;20167;-64
2022/01/06 05:26:38;;;;;;;5.43;2.27;;;;;;;18.79;56.71;100451.13;5093039;28;20650;-64
2022/01/06 05:29:07;;;;;;;3.90;1.80;;;;;;;18.76;56.77;100453.94;5074059;28;20882;-64
2022/01/06 05:31:33;;;;;;;8.77;2.17;;;;;;;18.75;56.00;100455.13;5080758;28;20428;-64
2022/01/06 05:33:58;;;;;;;3.83;1.80;;;;;;;18.72;56.90;100465.28;5071697;28;21009;-64
2022/01/06 05:36:23;;;;;;;4.97;2.43;;;;;;;18.75;56.68;100461.69;5071961;28;20184;-64
2022/01/06 05:38:49;;;;;;;5.73;2.00;;;;;;;18.77;56.55;100470.69;5073530;28;20183;-64
2022/01/06 05:41:14;;;;;;;4.77;1.83;;;;;;;18.75;56.66;100478.84;5071962;28;20185;-64
2022/01/06 05:43:40;;;;;;;7.57;2.00;;;;;;;18.75;56.59;100467.41;5070941;28;20167;-64
2022/01/06 05:46:05;;;;;;;4.10;2.03;;;;;;;18.76;56.47;100462.50;5071919;28;20193;-64
2022/01/06 05:48:31;;;;;;;4.27;1.93;;;;;;;18.77;56.42;100470.69;5071363;28;20175;-64
2022/01/06 05:50:56;;;;;;;6.07;2.20;;;;;;;18.74;56.90;100476.34;5054546;28;20226;-64
2022/01/06 05:53:21;;;;;;;4.70;2.20;;;;;;;18.81;56.44;100479.38;5073655;28;20701;-64
2022/01/06 05:55:47;;;;;;;4.13;2.00;;;;;;;18.73;56.73;100481.25;5071715;28;20163;-64
2022/01/06 05:58:12;;;;;;;4.40;2.23;;;;;;;18.72;56.61;100482.44;5070968;28;20258;-64
2022/01/06 06:00:38;;;;;;;5.27;2.33;;;;;;;18.71;56.57;100486.50;5053408;28;20352;-64
2022/01/06 06:03:03;;;;;;;5.50;2.60;;;;;;;18.75;56.39;100492.28;5071842;28;20633;-64
2022/01/06 06:05:29;;;;;;;4.23;2.00;;;;;;;18.72;56.87;100484.50;5071758;28;20155;-64
2022/01/06 06:07:54;;;;;;;4.50;2.03;;;;;;;18.75;56.28;100492.28;5071178;28;20183;-64
2022/01/06 06:10:19;;;;;;;3.80;1.90;;;;;;;18.73;56.63;100491.84;5071018;28;20221;-64
2022/01/06 06:12:45;;;;;;;7.57;1.90;;;;;;;18.72;56.88;100491.00;5071560;28;20179;-64
2022/01/06 06:15:10;;;;;;;3.53;1.60;;;;;;;18.74;56.68;100499.22;5071712;28;20195;-64
2022/01/06 06:17:36;;;;;;;4.40;1.67;;;;;;;18.75;56.70;100503.75;5070975;28;20175;-64
2022/01/06 06:20:02;;;;;;;3.73;2.10;;;;;;;18.75;56.31;100500.88;5071085;28;20182;-64
2022/01/06 06:22:27;;;;;;;4.40;2.03;;;;;;;18.75;56.49;100501.72;5071241;28;20800;-64
2022/01/06 06:24:53;;;;;;;3.13;1.50;;;;;;;18.79;56.29;100502.63;5071095;28;20402;-64
2022/01/06 06:27:18;;;;;;;3.90;1.93;;;;;;;18.76;56.47;100514.00;5071084;28;20186;-64
2022/01/06 06:29:43;;;;;;;4.40;2.17;;;;;;;18.76;56.64;100514.00;5070692;28;20198;-64
2022/01/06 06:32:09;;;;;;;5.10;2.17;;;;;;;18.73;56.72;100527.03;5064404;28;20273;-64
2022/01/06 06:34:34;;;;;;;3.67;1.87;;;;;;;18.78;56.39;100523.84;5070824;28;20289;-64
2022/01/06 06:37:00;;;;;;;4.30;2.17;;;;;;;18.74;56.41;100528.66;5070783;28;20250;-64
2022/01/06 06:39:25;;;;;;;4.60;2.17;;;;;;;18.77;56.45;100529.94;5078763;28;20524;-64
2022/01/06 06:41:51;;;;;;;3.37;1.60;;;;;;;18.75;56.52;100530.31;5091231;28;20171;-64
2022/01/06 06:44:16;;;;;;;4.60;1.60;;;;;;;18.73;56.72;100538.47;5090356;28;20220;-64
2022/01/06 06:46:42;;;;;;;5.53;2.03;;;;;;;18.74;56.58;100528.66;5090983;28;20174;-64
2022/01/06 06:49:07;;;;;;;4.07;1.90;;;;;;;18.77;56.35;100527.91;5072661;28;20175;-64
2022/01/06 06:51:33;;;;;;;2.73;1.67;;;;;;;18.75;56.61;100524.59;5090553;28;20190;-64
2022/01/06 06:53:58;;;;;;;3.90;1.80;;;;;;;18.74;57.08;100530.69;5090251;28;20575;-64
2022/01/06 06:56:23;;;;;;;4.07;2.10;;;;;;;18.76;56.46;100526.25;5091002;28;20634;-64
2022/01/06 06:58:49;;;;;;;4.57;2.17;;;;;;;18.75;56.36;100536.03;5090210;28;20240;-64
2022/01/06 07:01:14;;;;;;;4.83;2.43;;;;;;;18.75;56.54;100540.91;5065370;28;20240;-64
2022/01/06 07:03:40;;;;;;;4.17;2.07;;;;;;;18.75;56.52;100550.34;5069439;28;20217;-64
2022/01/06 07:06:05;;;;;;;4.00;1.90;;;;;;;18.76;56.24;100552.00;5069893;28;20203;-65
2022/01/06 07:08:31;;;;;;;4.10;1.80;;;;;;;18.75;56.62;100555.22;5069996;28;20179;-65
2022/01/06 07:10:56;;;;;;;6.63;2.43;;;;;;;18.80;56.32;100554.91;5052463;28;20186;-65
2022/01/06 07:13:21;;;;;;;3.60;2.00;;;;;;;18.76;56.44;100563.44;5069836;28;20179;-65
2022/01/06 07:15:47;;;;;;;6.30;2.33;;;;;;;18.76;56.28;100557.72;5070035;28;20182;-64
2022/01/06 07:18:12;;;;;;;4.40;2.03;;;;;;;18.78;56.25;100560.19;5055149;28;20174;-64
2022/01/06 07:20:38;;;;;;;2.83;1.70;;;;;;;18.78;56.49;100569.63;5072539;28;20170;-64
2022/01/06 07:23:03;;;;;;;3.30;1.60;;;;;;;18.79;56.20;100565.53;5068803;28;20166;-64
2022/01/06 07:25:29;;;;;;;3.67;2.00;;;;;;;18.77;56.11;100573.66;5067048;28;20202;-64
2022/01/06 07:27:54;;;;;;;4.73;1.83;;;;;;;18.75;56.37;100570.34;5069822;28;20175;-64
2022/01/06 07:30:20;;;;;;;3.10;1.57;;;;;;;18.76;56.30;100572.00;5069862;28;20477;-64
2022/01/06 07:32:47;;;;;;;3.30;1.67;;;;;;;18.81;56.30;100568.84;5069565;28;20174;-65
2022/01/06 07:35:13;;;;;;;6.13;1.90;;;;;;;18.80;56.10;100584.34;5070013;28;20211;-65
2022/01/06 07:37:38;;;;;;;2.80;1.70;;;;;;;18.76;56.56;100583.44;5069179;28;20424;-65
2022/01/06 07:40:04;;;;;;;3.97;1.70;;;;;;;18.79;56.33;100581.88;5036207;28;20414;-65
2022/01/06 07:42:30;;;;;;;3.40;1.90;;;;;;;18.77;56.68;100585.09;5034250;28;20270;-65
2022/01/06 07:44:56;;;;;;;3.73;1.87;;;;;;;18.80;56.55;100592.94;5049828;28;20426;-64
2022/01/06 07:47:22;;;;;;;3.83;2.03;;;;;;;18.76;56.48;100591.22;5049314;28;20655;-65
2022/01/06 07:49:47;;;;;;;5.93;1.80;;;;;;;18.79;56.40;100593.31;5049929;28;20437;-65
2022/01/06 07:52:12;;;;;;;3.30;1.60;;;;;;;18.76;56.36;100594.09;5050143;28;20175;-65
2022/01/06 07:54:38;;;;;;;4.20;2.00;;;;;;;18.77;56.34;100590.81;5071446;28;20615;-65
2022/01/06 07:57:03;;;;;;;4.23;2.00;;;;;;;18.76;56.60;100594.88;5069784;28;20183;-65
2022/01/06 07:59:29;;;;;;;4.97;1.60;;;;;;;18.77;56.44;100595.72;5069213;28;20250;-65
2022/01/06 08:01:54;;;;;;;3.67;2.03;;;;;;;18.76;55.96;100606.34;5069574;28;20193;-65
2022/01/06 08:04:20;;;;;;;3.97;2.00;;;;;;;18.81;55.99;100596.66;5051605;28;20242;-65
2022/01/06 08:06:45;;;;;;;4.07;1.70;;;;;;;18.76;56.16;100606.34;5069208;28;20194;-65
2022/01/06 08:09:11;;;;;;;2.57;1.47;;;;;;;18.75;56.53;100610.41;5050997;28;20569;-65
2022/01/06 08:11:36;;;;;;;3.87;1.73;;;;;;;18.79;56.07;100610.47;5069844;28;20177;-65
2022/01/06 08:14:02;;;;;;;4.17;1.83;;;;;;;18.79;56.16;100617.03;5050556;28;20237;-65
2022/01/06 08:16:27;;;;;;;3.27;1.50;;;;;;;18.78;56.21;100608.81;5069967;28;20519;-64
2022/01/06 08:18:52;;;;;;;3.50;1.63;;;;;;;18.79;55.77;100611.31;5069296;28;20194;-65
2022/01/06 08:21:18;;;;;;;3.90;2.10;;;;;;;18.75;56.22;100610.41;5050158;28;20541;-65
2022/01/06 08:23:43;;;;;;;3.00;1.60;;;;;;;18.79;56.37;100616.19;5068749;28;20179;-64
2022/01/06 08:26:09;;;;;;;3.70;2.13;;;;;;;18.77;56.31;100622.28;5069243;28;20172;-65
2022/01/06 08:28:34;;;;;;;4.10;1.83;;;;;;;18.79;56.09;100617.03;5069383;28;20521;-65
2022/01/06 08:31:00;;;;;;;4.27;1.70;;;;;;;18.78;56.39;100623.13;5071866;28;20187;-65
2022/01/06 08:33:26;;;;;;;3.33;1.90;;;;;;;18.77;56.23;100622.28;5064044;28;20187;-65
2022/01/06 08:35:51;;;;;;;4.03;1.70;;;;;;;18.77;56.06;100627.19;5051082;28;20171;-65
2022/01/06 08:38:17;;;;;;;3.30;1.57;;;;;;;18.78;56.15;100635.41;5066768;28;20890;-65
2022/01/06 08:40:42;;;;;;;3.63;1.70;;;;;;;18.82;55.93;100630.56;5049225;28;20187;-65
2022/01/06 08:43:08;;;;;;;4.23;1.57;;;;;;;18.81;56.15;100637.50;5049297;28;20263;-65
2022/01/06 08:45:33;;;;;;;3.30;1.73;;;;;;;18.80;56.22;100644.44;5049363;28;20591;-65
2022/01/06 08:47:58;;;;;;;4.50;1.57;;;;;;;18.77;56.30;100647.22;5048665;28;20635;-65
2022/01/06 08:50:24;;;;;;;3.43;1.57;;;;;;;18.75;56.35;100639.00;5049144;28;20241;-65
2022/01/06 08:52:51;;;;;;;3.47;1.80;;;;;;;18.80;56.61;100652.16;5048827;28;20538;-65
2022/01/06 08:55:16;;;;;;;2.80;1.70;;;;;;;18.82;55.84;100658.38;5067595;28;20210;-65
2022/01/06 08:57:41;;;;;;;3.40;1.60;;;;;;;18.77;56.15;100648.03;5068310;28;20406;-65
2022/01/06 09:00:09;;;;;;;3.77;1.87;;;;;;;18.79;56.21;100650.53;5069193;28;20226;-65
2022/01/06 09:02:34;;;;;;;2.93;1.40;;;;;;;18.78;56.37;100644.00;5051548;28;20193;-65
2022/01/06 09:05:02;;;;;;;2.93;1.50;;;;;;;18.81;56.03;100646.09;5068601;28;20413;-65
2022/01/06 09:07:28;;;;;;;3.77;2.07;;;;;;;18.76;56.25;100646.38;5068212;28;20265;-65
2022/01/06 09:09:53;;;;;;;3.50;1.77;;;;;;;18.78;56.29;100646.84;5067671;28;20425;-65
2022/01/06 09:12:18;;;;;;;3.27;1.57;;;;;;;18.77;56.39;100650.88;5069227;28;20175;-65
2022/01/06 09:14:44;;;;;;;3.60;1.50;;;;;;;18.78;56.36;100648.88;5051144;28;20191;-64
2022/01/06 09:17:10;;;;;;;2.20;1.20;;;;;;;18.76;56.21;100654.16;5069557;28;20175;-64
2022/01/06 09:19:35;;;;;;;4.33;1.50;;;;;;;18.75;56.26;100656.16;5072193;28;20171;-65
2022/01/06 09:22:01;;;;;;;3.00;1.60;;;;;;;18.75;56.30;100656.16;5053968;28;20546;-64
2022/01/06 09:24:26;;;;;;;4.60;2.20;;;;;;;18.76;56.02;100662.72;5072672;28;20561;-64
2022/01/06 09:26:52;;;;;;;2.73;1.43;;;;;;;18.77;56.30;100661.53;5039986;28;20183;-64
2022/01/06 09:29:17;;;;;;;4.67;2.60;;;;;;;18.79;56.32;100662.81;5072419;28;20643;-64
2022/01/06 09:31:42;;;;;;;3.63;1.70;;;;;;;18.77;56.45;100665.19;5071928;28;20193;-65
2022/01/06 09:34:08;;;;;;;3.57;1.77;;;;;;;18.73;56.64;100670.03;5071996;28;20207;-65
2022/01/06 09:36:34;;;;;;;2.90;1.53;;;;;;;18.78;56.07;100666.03;5072377;28;20240;-64
2022/01/06 09:39:00;;;;;;;3.57;1.80;;;;;;;18.75;56.24;100672.47;5071927;28;20179;-64
2022/01/06 09:41:30;;;;;;;3.43;1.60;;;;;;;18.79;56.28;100664.81;5059734;28;20182;-65
2022/01/06 09:43:55;;;;;;;3.93;1.40;;;;;;;18.75;56.63;100656.16;5075309;28;20580;-65
2022/01/06 09:46:21;;;;;;;2.80;1.47;;;;;;;18.77;56.15;100670.91;5092176;28;20427;-64
2022/01/06 09:48:47;;;;;;;3.30;1.60;;;;;;;18.78;56.08;100669.72;5091486;28;20182;-65
2022/01/06 09:51:12;;;;;;;2.87;1.43;;;;;;;18.78;56.18;100674.63;5086092;28;20193;-64
2022/01/06 09:53:38;;;;;;;2.80;1.60;;;;;;;18.77;56.36;100678.69;5091715;28;20174;-64
2022/01/06 09:56:03;;;;;;;2.63;1.53;;;;;;;18.78;56.10;100672.59;5092440;28;20180;-65
2022/01/06 09:58:29;;;;;;;3.37;1.70;;;;;;;18.78;56.53;100677.47;5091691;28;20270;-64
2022/01/06 10:00:55;;;;;;;3.00;1.43;;;;;;;18.80;56.15;100684.47;5048036;28;20247;-64
2022/01/06 10:03:38;;;;;;;3.40;1.57;;;;;;;18.82;55.96;100684.91;5052078;28;20168;-65
2022/01/06 10:06:21;;;;;;;2.47;1.43;;;;;;;18.80;56.21;100681.63;5036746;28;20541;-64
2022/01/06 10:08:59;;;;;;;3.53;1.70;;;;;;;18.80;56.44;100686.50;5050860;28;20972;-64
2022/01/06 10:11:42;;;;;;;3.40;1.83;;;;;;;18.85;55.89;100689.06;5051558;28;20765;-64
2022/01/06 10:14:11;;;;;;;3.00;1.60;;;;;;;18.81;56.41;100689.00;5033661;28;20458;-64
2022/01/06 10:16:44;;;;;;;2.90;1.43;;;;;;;18.82;55.97;100684.91;5052230;28;20422;-64
2022/01/06 10:19:11;;;;;;;3.50;1.40;;;;;;;18.81;56.10;100674.69;5054854;28;20409;-64
2022/01/06 10:21:41;;;;;;;3.10;1.67;;;;;;;18.81;56.16;100691.03;5092304;28;20416;-64
2022/01/06 10:24:13;;;;;;;3.30;1.60;;;;;;;18.83;56.10;100686.59;5074009;28;20427;-64
2022/01/06 10:26:51;;;;;;;2.63;1.40;;;;;;;18.84;56.29;100691.13;5070408;28;20421;-64
2022/01/06 10:29:16;;;;;;;2.87;1.50;;;;;;;18.84;56.07;100693.13;5036730;28;20517;-64
2022/01/06 10:31:42;;;;;;;3.43;1.40;;;;;;;18.87;55.86;100693.22;5063754;28;20523;-64
2022/01/06 10:34:07;;;;;;;2.87;1.50;;;;;;;18.85;56.13;100692.75;5071218;28;20605;-65
2022/01/06 10:36:35;;;;;;;5.47;2.10;;;;;;;18.86;56.00;100690.75;5070335;28;20272;-64
2022/01/06 10:39:01;;;;;;;4.10;1.60;;;;;;;18.87;56.17;100689.53;5068533;28;20179;-64
2022/01/06 10:41:27;;;;;;;2.70;1.40;;;;;;;18.90;55.73;100692.47;5039974;28;20421;-64
2022/01/06 10:43:54;;;;;;;2.33;1.10;;;;;;;18.92;55.81;100690.06;5091468;28;20174;-64
2022/01/06 10:46:33;;;;;;;3.30;1.93;;;;;;;18.89;56.03;100690.81;5090632;28;20443;-64
2022/01/06 10:49:00;;;;;;;2.77;1.63;;;;;;;18.88;55.77;100683.44;5071458;28;20912;-64
2022/01/06 10:51:42;;;;;;;2.50;1.40;;;;;;;18.90;56.13;100678.16;5069372;28;20433;-64
2022/01/06 10:54:13;;;;;;;4.13;1.40;;;;;;;18.90;55.78;100689.63;5070829;28;20507;-65
2022/01/06 10:56:39;;;;;;;3.43;1.73;;;;;;;18.91;55.73;100681.88;5052325;28;20421;-64
2022/01/06 10:59:04;;;;;;;2.90;1.23;;;;;;;18.90;56.10;100692.47;5052691;28;20503;-64
2022/01/06 11:01:34;;;;;;;2.90;1.40;;;;;;;18.87;56.05;100690.34;5063643;28;20191;-64
2022/01/06 11:03:59;;;;;;;3.77;1.50;;;;;;;18.87;55.92;100692.41;5070358;28;20179;-64
2022/01/06 11:06:24;;;;;;;2.50;1.37;;;;;;;18.88;56.04;100689.16;5070388;28;20728;-65
2022/01/06 11:08:51;;;;;;;2.70;1.40;;;;;;;18.83;55.92;100695.19;5069811;28;20175;-65
2022/01/06 11:11:30;;;;;;;2.93;1.30;;;;;;;18.87;55.83;100692.41;5052629;28;20178;-64
2022/01/06 11:13:56;;;;;;;2.43;1.40;;;;;;;18.89;55.91;100689.97;5054601;28;20539;-64
2022/01/06 11:16:21;;;;;;;2.97;1.70;;;;;;;18.88;56.03;100694.91;5070180;28;20517;-64
2022/01/06 11:18:57;;;;;;;3.87;1.40;;;;;;;18.88;55.95;100691.19;5084239;28;20404;-64
2022/01/06 11:21:39;;;;;;;2.87;1.40;;;;;;;18.90;56.16;100703.91;5090360;28;20554;-64
2022/01/06 11:24:10;;;;;;;4.07;1.40;;;;;;;18.92;55.93;100695.78;5090748;28;20415;-64